sensor_id;sensor_type;location;lat;lon;timestamp;P1;durP1;ratioP1;P2;durP2;ratioP2
61360;SDS011;47232;47.506;18.936;2024-03-02T00:00:23;29.10;;;16.80;;
61360;SDS011;47232;47.506;18.936;2024-03-02T00:02:59;27.30;;;15.90;;
61360;SDS011;47232;47.506;18.936;2024-03-02T00:05:25;26.70;;;16.20;;
61360;SDS011;47232;47.506;18.936;2024-03-02T00:08:27;23.90;;;16.50;;
61360;SDS011;47232;47.506;18.936;2024-03-02T00:11:03;24.40;;;15.80;;
61360;SDS011;47232;47.506;18.936;2024-03-02T00:13:29;25.90;;;16.60;;
61360;SDS011;47232;47.506;18.936;2024-03-02T00:15:56;27.00;;;16.30;;
61360;SDS011;47232;47.506;18.936;2024-03-02T00:18:27;25.90;;;17.00;;
61360;SDS011;47232;47.506;18.936;2024-03-02T00:20:56;28.80;;;17.00;;
61360;SDS011;47232;47.506;18.936;2024-03-02T00:23:23;28.50;;;16.90;;
61360;SDS011;47232;47.506;18.936;2024-03-02T00:25:53;25.60;;;16.50;;
61360;SDS011;47232;47.506;18.936;2024-03-02T00:28:21;25.40;;;16.60;;
61360;SDS011;47232;47.506;18.936;2024-03-02T00:33:28;28.50;;;16.20;;
61360;SDS011;47232;47.506;18.936;2024-03-02T00:35:56;24.30;;;16.10;;
61360;SDS011;47232;47.506;18.936;2024-03-02T00:38:22;29.10;;;16.30;;
61360;SDS011;47232;47.506;18.936;2024-03-02T00:40:48;25.80;;;15.60;;
61360;SDS011;47232;47.506;18.936;2024-03-02T00:46:40;23.50;;;14.90;;
61360;SDS011;47232;47.506;18.936;2024-03-02T00:51:48;25.20;;;14.40;;
61360;SDS011;47232;47.506;18.936;2024-03-02T00:54:15;26.80;;;16.40;;
61360;SDS011;47232;47.506;18.936;2024-03-02T00:56:45;26.70;;;16.20;;
61360;SDS011;47232;47.506;18.936;2024-03-02T00:59:12;27.30;;;16.50;;
61360;SDS011;47232;47.506;18.936;2024-03-02T01:01:39;23.50;;;16.30;;
61360;SDS011;47232;47.506;18.936;2024-03-02T01:04:05;26.90;;;16.40;;
61360;SDS011;47232;47.506;18.936;2024-03-02T01:06:31;24.60;;;15.00;;
61360;SDS011;47232;47.506;18.936;2024-03-02T01:08:56;27.00;;;15.90;;
61360;SDS011;47232;47.506;18.936;2024-03-02T01:11:22;27.70;;;16.30;;
61360;SDS011;47232;47.506;18.936;2024-03-02T01:13:49;29.50;;;17.10;;
61360;SDS011;47232;47.506;18.936;2024-03-02T01:16:16;28.70;;;16.50;;
61360;SDS011;47232;47.506;18.936;2024-03-02T01:18:42;26.20;;;17.00;;
61360;SDS011;47232;47.506;18.936;2024-03-02T01:21:07;26.80;;;16.40;;
61360;SDS011;47232;47.506;18.936;2024-03-02T01:23:34;25.60;;;16.30;;
61360;SDS011;47232;47.506;18.936;2024-03-02T01:25:59;27.20;;;17.40;;
61360;SDS011;47232;47.506;18.936;2024-03-02T01:28:29;29.60;;;17.70;;
61360;SDS011;47232;47.506;18.936;2024-03-02T01:30:55;29.60;;;17.90;;
61360;SDS011;47232;47.506;18.936;2024-03-02T01:33:23;29.20;;;18.60;;
61360;SDS011;47232;47.506;18.936;2024-03-02T01:35:51;30.80;;;18.20;;
61360;SDS011;47232;47.506;18.936;2024-03-02T01:38:17;30.00;;;18.20;;
61360;SDS011;47232;47.506;18.936;2024-03-02T01:40:45;26.70;;;16.70;;
61360;SDS011;47232;47.506;18.936;2024-03-02T01:45:40;27.70;;;16.40;;
61360;SDS011;47232;47.506;18.936;2024-03-02T01:48:13;26.60;;;16.50;;
61360;SDS011;47232;47.506;18.936;2024-03-02T01:50:50;24.50;;;16.40;;
61360;SDS011;47232;47.506;18.936;2024-03-02T01:53:20;26.90;;;16.20;;
61360;SDS011;47232;47.506;18.936;2024-03-02T01:55:45;26.30;;;16.50;;
61360;SDS011;47232;47.506;18.936;2024-03-02T01:58:11;26.20;;;17.70;;
61360;SDS011;47232;47.506;18.936;2024-03-02T02:00:39;25.30;;;16.60;;
61360;SDS011;47232;47.506;18.936;2024-03-02T02:03:04;29.60;;;17.70;;
61360;SDS011;47232;47.506;18.936;2024-03-02T02:05:30;27.60;;;17.70;;
61360;SDS011;47232;47.506;18.936;2024-03-02T02:07:56;27.90;;;17.10;;
61360;SDS011;47232;47.506;18.936;2024-03-02T02:10:23;28.10;;;18.10;;
61360;SDS011;47232;47.506;18.936;2024-03-02T02:12:49;26.50;;;16.90;;
61360;SDS011;47232;47.506;18.936;2024-03-02T02:15:22;26.90;;;16.60;;
61360;SDS011;47232;47.506;18.936;2024-03-02T02:17:55;25.30;;;16.10;;
61360;SDS011;47232;47.506;18.936;2024-03-02T02:20:22;26.80;;;17.20;;
61360;SDS011;47232;47.506;18.936;2024-03-02T02:25:27;27.30;;;16.90;;
61360;SDS011;47232;47.506;18.936;2024-03-02T02:27:55;26.90;;;16.40;;
61360;SDS011;47232;47.506;18.936;2024-03-02T02:30:21;26.40;;;16.10;;
61360;SDS011;47232;47.506;18.936;2024-03-02T02:32:50;28.10;;;16.80;;
61360;SDS011;47232;47.506;18.936;2024-03-02T02:35:15;25.10;;;15.30;;
61360;SDS011;47232;47.506;18.936;2024-03-02T02:37:41;26.50;;;15.70;;
61360;SDS011;47232;47.506;18.936;2024-03-02T02:40:07;25.60;;;16.00;;
61360;SDS011;47232;47.506;18.936;2024-03-02T02:42:33;23.70;;;15.90;;
61360;SDS011;47232;47.506;18.936;2024-03-02T02:45:00;24.60;;;15.60;;
61360;SDS011;47232;47.506;18.936;2024-03-02T02:47:29;23.80;;;15.30;;
61360;SDS011;47232;47.506;18.936;2024-03-02T02:50:03;24.50;;;15.30;;
61360;SDS011;47232;47.506;18.936;2024-03-02T02:52:36;24.10;;;15.40;;
61360;SDS011;47232;47.506;18.936;2024-03-02T02:55:20;25.00;;;15.70;;
61360;SDS011;47232;47.506;18.936;2024-03-02T02:57:45;26.90;;;17.00;;
61360;SDS011;47232;47.506;18.936;2024-03-02T03:00:12;24.50;;;15.60;;
61360;SDS011;47232;47.506;18.936;2024-03-02T03:02:40;26.10;;;15.40;;
61360;SDS011;47232;47.506;18.936;2024-03-02T03:05:07;24.40;;;14.90;;
61360;SDS011;47232;47.506;18.936;2024-03-02T03:07:54;25.30;;;14.90;;
61360;SDS011;47232;47.506;18.936;2024-03-02T03:10:40;23.40;;;14.20;;
61360;SDS011;47232;47.506;18.936;2024-03-02T03:13:08;24.50;;;14.40;;
61360;SDS011;47232;47.506;18.936;2024-03-02T03:15:34;22.70;;;14.50;;
61360;SDS011;47232;47.506;18.936;2024-03-02T03:18:04;24.10;;;15.10;;
61360;SDS011;47232;47.506;18.936;2024-03-02T03:20:30;23.60;;;15.50;;
61360;SDS011;47232;47.506;18.936;2024-03-02T03:22:56;23.10;;;14.60;;
61360;SDS011;47232;47.506;18.936;2024-03-02T03:25:30;23.40;;;14.00;;
61360;SDS011;47232;47.506;18.936;2024-03-02T03:27:58;27.30;;;15.40;;
61360;SDS011;47232;47.506;18.936;2024-03-02T03:30:23;24.30;;;14.90;;
61360;SDS011;47232;47.506;18.936;2024-03-02T03:32:50;23.00;;;14.30;;
61360;SDS011;47232;47.506;18.936;2024-03-02T03:35:19;22.20;;;13.70;;
61360;SDS011;47232;47.506;18.936;2024-03-02T03:37:45;23.10;;;14.40;;
61360;SDS011;47232;47.506;18.936;2024-03-02T03:40:11;22.90;;;14.20;;
61360;SDS011;47232;47.506;18.936;2024-03-02T03:42:39;21.60;;;13.70;;
61360;SDS011;47232;47.506;18.936;2024-03-02T03:45:05;22.90;;;13.70;;
61360;SDS011;47232;47.506;18.936;2024-03-02T03:47:32;24.20;;;13.80;;
61360;SDS011;47232;47.506;18.936;2024-03-02T03:50:01;22.70;;;13.50;;
61360;SDS011;47232;47.506;18.936;2024-03-02T03:52:31;22.40;;;14.00;;
61360;SDS011;47232;47.506;18.936;2024-03-02T03:55:00;24.30;;;14.50;;
61360;SDS011;47232;47.506;18.936;2024-03-02T03:57:30;22.60;;;14.10;;
61360;SDS011;47232;47.506;18.936;2024-03-02T04:00:04;27.40;;;14.80;;
61360;SDS011;47232;47.506;18.936;2024-03-02T04:02:36;23.30;;;14.50;;
61360;SDS011;47232;47.506;18.936;2024-03-02T04:05:10;23.80;;;14.40;;
61360;SDS011;47232;47.506;18.936;2024-03-02T04:08:12;23.30;;;14.50;;
61360;SDS011;47232;47.506;18.936;2024-03-02T04:10:58;23.10;;;14.10;;
61360;SDS011;47232;47.506;18.936;2024-03-02T04:13:44;25.40;;;15.20;;
61360;SDS011;47232;47.506;18.936;2024-03-02T04:16:19;28.00;;;15.80;;
61360;SDS011;47232;47.506;18.936;2024-03-02T04:19:11;27.10;;;15.10;;
61360;SDS011;47232;47.506;18.936;2024-03-02T04:21:37;25.50;;;14.90;;
61360;SDS011;47232;47.506;18.936;2024-03-02T04:25:03;26.50;;;15.70;;
61360;SDS011;47232;47.506;18.936;2024-03-02T04:27:32;24.20;;;15.00;;
61360;SDS011;47232;47.506;18.936;2024-03-02T04:29:58;24.20;;;15.00;;
61360;SDS011;47232;47.506;18.936;2024-03-02T04:32:25;25.60;;;15.30;;
61360;SDS011;47232;47.506;18.936;2024-03-02T04:34:51;23.50;;;14.80;;
61360;SDS011;47232;47.506;18.936;2024-03-02T04:37:17;26.10;;;15.40;;
61360;SDS011;47232;47.506;18.936;2024-03-02T04:39:44;25.00;;;15.50;;
61360;SDS011;47232;47.506;18.936;2024-03-02T04:42:10;25.20;;;15.40;;
61360;SDS011;47232;47.506;18.936;2024-03-02T04:44:36;27.20;;;15.50;;
61360;SDS011;47232;47.506;18.936;2024-03-02T04:47:04;27.00;;;16.00;;
61360;SDS011;47232;47.506;18.936;2024-03-02T04:49:30;27.50;;;17.10;;
61360;SDS011;47232;47.506;18.936;2024-03-02T04:52:01;26.20;;;17.40;;
61360;SDS011;47232;47.506;18.936;2024-03-02T04:54:47;28.80;;;17.20;;
61360;SDS011;47232;47.506;18.936;2024-03-02T04:57:32;28.40;;;17.10;;
61360;SDS011;47232;47.506;18.936;2024-03-02T04:59:59;25.50;;;16.10;;
61360;SDS011;47232;47.506;18.936;2024-03-02T05:02:25;24.60;;;14.70;;
61360;SDS011;47232;47.506;18.936;2024-03-02T05:04:50;29.60;;;16.70;;
61360;SDS011;47232;47.506;18.936;2024-03-02T05:07:17;31.80;;;18.10;;
61360;SDS011;47232;47.506;18.936;2024-03-02T05:09:44;28.10;;;15.60;;
61360;SDS011;47232;47.506;18.936;2024-03-02T05:12:20;25.80;;;15.90;;
61360;SDS011;47232;47.506;18.936;2024-03-02T05:15:10;25.90;;;15.90;;
61360;SDS011;47232;47.506;18.936;2024-03-02T05:17:38;24.70;;;15.10;;
61360;SDS011;47232;47.506;18.936;2024-03-02T05:20:11;25.20;;;15.70;;
61360;SDS011;47232;47.506;18.936;2024-03-02T05:22:55;26.80;;;15.70;;
61360;SDS011;47232;47.506;18.936;2024-03-02T05:25:30;26.60;;;16.70;;
61360;SDS011;47232;47.506;18.936;2024-03-02T05:28:10;25.70;;;15.80;;
61360;SDS011;47232;47.506;18.936;2024-03-02T05:30:37;24.30;;;15.50;;
61360;SDS011;47232;47.506;18.936;2024-03-02T05:33:03;27.90;;;16.10;;
61360;SDS011;47232;47.506;18.936;2024-03-02T05:36:13;25.00;;;15.30;;
61360;SDS011;47232;47.506;18.936;2024-03-02T05:38:48;25.20;;;15.20;;
61360;SDS011;47232;47.506;18.936;2024-03-02T05:41:36;26.40;;;16.90;;
61360;SDS011;47232;47.506;18.936;2024-03-02T05:44:03;26.50;;;15.80;;
61360;SDS011;47232;47.506;18.936;2024-03-02T05:46:30;28.50;;;17.00;;
61360;SDS011;47232;47.506;18.936;2024-03-02T05:48:56;30.10;;;17.60;;
61360;SDS011;47232;47.506;18.936;2024-03-02T05:51:26;29.80;;;18.00;;
61360;SDS011;47232;47.506;18.936;2024-03-02T05:53:52;27.20;;;17.30;;
61360;SDS011;47232;47.506;18.936;2024-03-02T05:56:26;26.80;;;16.90;;
61360;SDS011;47232;47.506;18.936;2024-03-02T05:58:59;26.90;;;16.80;;
61360;SDS011;47232;47.506;18.936;2024-03-02T06:01:42;29.40;;;17.30;;
61360;SDS011;47232;47.506;18.936;2024-03-02T06:04:10;27.00;;;17.30;;
61360;SDS011;47232;47.506;18.936;2024-03-02T06:06:43;25.60;;;16.00;;
61360;SDS011;47232;47.506;18.936;2024-03-02T06:12:02;27.30;;;16.10;;
61360;SDS011;47232;47.506;18.936;2024-03-02T06:14:51;23.80;;;15.60;;
61360;SDS011;47232;47.506;18.936;2024-03-02T06:17:18;29.30;;;16.10;;
61360;SDS011;47232;47.506;18.936;2024-03-02T06:19:44;25.80;;;16.40;;
61360;SDS011;47232;47.506;18.936;2024-03-02T06:22:40;28.30;;;16.40;;
61360;SDS011;47232;47.506;18.936;2024-03-02T06:25:27;28.00;;;16.80;;
61360;SDS011;47232;47.506;18.936;2024-03-02T06:28:00;24.10;;;15.60;;
61360;SDS011;47232;47.506;18.936;2024-03-02T06:30:32;25.30;;;15.50;;
61360;SDS011;47232;47.506;18.936;2024-03-02T06:33:26;25.10;;;15.70;;
61360;SDS011;47232;47.506;18.936;2024-03-02T06:36:32;29.40;;;17.10;;
61360;SDS011;47232;47.506;18.936;2024-03-02T06:39:21;24.70;;;15.80;;
61360;SDS011;47232;47.506;18.936;2024-03-02T06:42:07;26.00;;;16.20;;
61360;SDS011;47232;47.506;18.936;2024-03-02T06:44:53;28.50;;;17.10;;
61360;SDS011;47232;47.506;18.936;2024-03-02T06:48:03;26.80;;;16.30;;
61360;SDS011;47232;47.506;18.936;2024-03-02T06:51:26;26.10;;;16.50;;
61360;SDS011;47232;47.506;18.936;2024-03-02T06:54:31;26.40;;;15.60;;
61360;SDS011;47232;47.506;18.936;2024-03-02T06:57:24;26.10;;;15.90;;
61360;SDS011;47232;47.506;18.936;2024-03-02T07:00:50;25.10;;;15.70;;
61360;SDS011;47232;47.506;18.936;2024-03-02T07:03:37;25.90;;;16.00;;
61360;SDS011;47232;47.506;18.936;2024-03-02T07:20:22;26.70;;;16.20;;
61360;SDS011;47232;47.506;18.936;2024-03-02T08:19:14;22.80;;;14.60;;
61360;SDS011;47232;47.506;18.936;2024-03-02T08:50:25;15.80;;;10.50;;
61360;SDS011;47232;47.506;18.936;2024-03-02T09:14:38;14.10;;;9.20;;
61360;SDS011;47232;47.506;18.936;2024-03-02T10:10:12;13.00;;;8.80;;
61360;SDS011;47232;47.506;18.936;2024-03-02T10:34:23;14.00;;;9.00;;
61360;SDS011;47232;47.506;18.936;2024-03-02T10:37:51;13.50;;;8.70;;
61360;SDS011;47232;47.506;18.936;2024-03-02T13:14:11;6.30;;;5.10;;
61360;SDS011;47232;47.506;18.936;2024-03-02T13:38:31;12.70;;;8.50;;
61360;SDS011;47232;47.506;18.936;2024-03-02T14:09:50;13.30;;;8.20;;
61360;SDS011;47232;47.506;18.936;2024-03-02T14:40:58;11.80;;;7.80;;
61360;SDS011;47232;47.506;18.936;2024-03-02T15:22:43;16.70;;;9.70;;
61360;SDS011;47232;47.506;18.936;2024-03-02T15:32:49;17.20;;;10.90;;
61360;SDS011;47232;47.506;18.936;2024-03-02T15:40:06;24.40;;;13.90;;
61360;SDS011;47232;47.506;18.936;2024-03-02T15:43:38;26.10;;;14.60;;
61360;SDS011;47232;47.506;18.936;2024-03-02T15:47:15;29.10;;;16.00;;
61360;SDS011;47232;47.506;18.936;2024-03-02T15:50:49;29.50;;;15.30;;
61360;SDS011;47232;47.506;18.936;2024-03-02T15:54:16;28.00;;;15.50;;
61360;SDS011;47232;47.506;18.936;2024-03-02T15:57:45;28.90;;;16.10;;
61360;SDS011;47232;47.506;18.936;2024-03-02T16:01:33;28.80;;;16.50;;
61360;SDS011;47232;47.506;18.936;2024-03-02T16:04:58;31.30;;;17.70;;
61360;SDS011;47232;47.506;18.936;2024-03-02T16:08:24;30.50;;;17.30;;
61360;SDS011;47232;47.506;18.936;2024-03-02T16:11:54;30.00;;;16.20;;
61360;SDS011;47232;47.506;18.936;2024-03-02T16:15:17;26.10;;;15.50;;
61360;SDS011;47232;47.506;18.936;2024-03-02T16:18:42;29.10;;;16.30;;
61360;SDS011;47232;47.506;18.936;2024-03-02T16:22:08;30.80;;;17.50;;
61360;SDS011;47232;47.506;18.936;2024-03-02T16:25:35;32.50;;;16.90;;
61360;SDS011;47232;47.506;18.936;2024-03-02T16:29:01;31.80;;;18.10;;
61360;SDS011;47232;47.506;18.936;2024-03-02T16:32:26;37.10;;;19.30;;
61360;SDS011;47232;47.506;18.936;2024-03-02T16:35:52;33.50;;;18.80;;
61360;SDS011;47232;47.506;18.936;2024-03-02T16:39:18;37.00;;;19.60;;
61360;SDS011;47232;47.506;18.936;2024-03-02T16:42:47;33.90;;;17.60;;
61360;SDS011;47232;47.506;18.936;2024-03-02T16:46:24;38.60;;;20.10;;
61360;SDS011;47232;47.506;18.936;2024-03-02T16:49:50;42.70;;;22.20;;
61360;SDS011;47232;47.506;18.936;2024-03-02T16:53:18;37.90;;;21.00;;
61360;SDS011;47232;47.506;18.936;2024-03-02T16:56:44;37.70;;;20.00;;
61360;SDS011;47232;47.506;18.936;2024-03-02T17:00:14;41.10;;;20.00;;
61360;SDS011;47232;47.506;18.936;2024-03-02T17:03:40;42.90;;;21.80;;
61360;SDS011;47232;47.506;18.936;2024-03-02T17:07:05;44.40;;;22.00;;
61360;SDS011;47232;47.506;18.936;2024-03-02T17:10:31;43.30;;;22.40;;
61360;SDS011;47232;47.506;18.936;2024-03-02T17:17:50;44.40;;;22.00;;
61360;SDS011;47232;47.506;18.936;2024-03-02T17:21:17;41.40;;;21.50;;
61360;SDS011;47232;47.506;18.936;2024-03-02T17:24:43;46.20;;;22.80;;
61360;SDS011;47232;47.506;18.936;2024-03-02T17:28:19;41.10;;;21.50;;
61360;SDS011;47232;47.506;18.936;2024-03-02T17:31:49;39.80;;;21.00;;
61360;SDS011;47232;47.506;18.936;2024-03-02T17:35:15;43.40;;;22.90;;
61360;SDS011;47232;47.506;18.936;2024-03-02T17:38:41;45.70;;;22.50;;
61360;SDS011;47232;47.506;18.936;2024-03-02T17:42:07;44.80;;;21.30;;
61360;SDS011;47232;47.506;18.936;2024-03-02T17:45:32;40.70;;;21.10;;
61360;SDS011;47232;47.506;18.936;2024-03-02T17:48:58;43.00;;;21.00;;
61360;SDS011;47232;47.506;18.936;2024-03-02T17:52:24;38.00;;;20.30;;
61360;SDS011;47232;47.506;18.936;2024-03-02T17:55:50;40.70;;;20.80;;
61360;SDS011;47232;47.506;18.936;2024-03-02T17:59:16;37.50;;;19.40;;
61360;SDS011;47232;47.506;18.936;2024-03-02T18:02:42;35.20;;;18.10;;
61360;SDS011;47232;47.506;18.936;2024-03-02T18:06:07;41.30;;;21.00;;
61360;SDS011;47232;47.506;18.936;2024-03-02T18:09:35;38.40;;;20.30;;
61360;SDS011;47232;47.506;18.936;2024-03-02T18:13:06;37.30;;;19.10;;
61360;SDS011;47232;47.506;18.936;2024-03-02T18:16:33;37.60;;;20.80;;
61360;SDS011;47232;47.506;18.936;2024-03-02T18:23:08;36.70;;;19.60;;
61360;SDS011;47232;47.506;18.936;2024-03-02T18:29:25;39.10;;;21.00;;
61360;SDS011;47232;47.506;18.936;2024-03-02T18:32:38;37.70;;;19.50;;
61360;SDS011;47232;47.506;18.936;2024-03-02T18:42:01;43.50;;;22.80;;
61360;SDS011;47232;47.506;18.936;2024-03-02T18:45:30;44.10;;;22.30;;
61360;SDS011;47232;47.506;18.936;2024-03-02T18:48:48;39.90;;;22.30;;
61360;SDS011;47232;47.506;18.936;2024-03-02T18:55:26;42.90;;;21.70;;
61360;SDS011;47232;47.506;18.936;2024-03-02T19:05:43;41.70;;;21.90;;
61360;SDS011;47232;47.506;18.936;2024-03-02T19:15:45;40.60;;;21.70;;
61360;SDS011;47232;47.506;18.936;2024-03-02T19:39:59;34.60;;;19.60;;
61360;SDS011;47232;47.506;18.936;2024-03-02T20:14:38;20.60;;;13.00;;
61360;SDS011;47232;47.506;18.936;2024-03-02T20:21:33;21.10;;;13.40;;
61360;SDS011;47232;47.506;18.936;2024-03-02T20:28:06;19.30;;;13.40;;
61360;SDS011;47232;47.506;18.936;2024-03-02T21:16:17;20.00;;;12.80;;
61360;SDS011;47232;47.506;18.936;2024-03-02T21:33:33;22.40;;;13.60;;
61360;SDS011;47232;47.506;18.936;2024-03-02T21:50:46;23.00;;;14.50;;
61360;SDS011;47232;47.506;18.936;2024-03-02T22:04:19;21.70;;;14.50;;
61360;SDS011;47232;47.506;18.936;2024-03-02T22:14:54;29.10;;;16.90;;
61360;SDS011;47232;47.506;18.936;2024-03-02T22:31:48;27.60;;;17.70;;
61360;SDS011;47232;47.506;18.936;2024-03-02T22:42:34;28.50;;;18.00;;
61360;SDS011;47232;47.506;18.936;2024-03-02T22:56:25;26.50;;;16.80;;
61360;SDS011;47232;47.506;18.936;2024-03-02T23:10:29;27.90;;;17.50;;
61360;SDS011;47232;47.506;18.936;2024-03-02T23:31:01;24.70;;;16.40;;
61360;SDS011;47232;47.506;18.936;2024-03-02T23:48:04;22.80;;;14.50;;
